This is the latest recevied weather packets stored in our database for station/object W6MAF. If no packets are shown the sender has not sent any weather packets the latest 1 day(s).
| Time | Temp. | Humidity | Pressure | Rain* | Wind** | Luminosity | Snow |
|---|---|---|---|---|---|---|---|
| 1778083838 | 15° C | 36% | - | 0 mm | 0 m/s | - | - |
| 1778082945 | 14.44° C | 38% | - | 0 mm | 0 m/s | - | - |
| 1778080855 | 12.78° C | 43% | - | 0 mm | 0 m/s | - | - |
| 1778079367 | 11.67° C | 48% | - | 0 mm | 0 m/s | - | - |
| 1778079066 | 11.67° C | 49% | - | 0 mm | 0 m/s | - | - |
| 1778078768 | 11.11° C | 50% | - | 0 mm | 0 m/s | - | - |
| 1778078173 | 10.56° C | 54% | - | 0 mm | 0 m/s | - | - |
| 1778077875 | 10.56° C | 56% | - | 0 mm | 0 m/s | - | - |
| 1778077579 | 10° C | 59% | - | 0 mm | 0 m/s | - | - |
| 1778077017 | 9.44° C | 64% | - | 0 mm | 0 m/s | - | - |
| 1778076979 | 9.44° C | 64% | - | 0 mm | 0 m/s | - | - |
| 1778076086 | 8.33° C | 70% | - | 0 mm | 0 m/s | - | - |
| 1778074297 | 7.22° C | 78% | - | 0 mm | 0 m/s | - | - |
| 1778073103 | 6.67° C | 84% | - | 0 mm | 2.24 m/s, 142° | - | - |
| 1778072210 | 6.11° C | 89% | - | 0 mm | 3.13 m/s, 165° | - | - |
| 1778071016 | 5° C | 94% | - | 0 mm | 2.68 m/s, 170° | - | - |
| 1778070720 | 5° C | 96% | - | 0 mm | 2.68 m/s, 165° | - | - |
| 1778070421 | 4.44° C | 96% | - | 0 mm | 2.68 m/s, 169° | - | - |
| 1778068331 | 4.44° C | 95% | - | 0 mm | 3.13 m/s, 195° | - | - |
| 1778067438 | 5° C | 95% | - | 0 mm | 3.13 m/s, 210° | - | - |
| 1778067140 | 5° C | 95% | - | 0 mm | 2.68 m/s, 231° | - | - |
| 1778066843 | 5° C | 95% | - | 0 mm | 3.13 m/s, 226° | - | - |
| 1778066244 | 5° C | 95% | - | 0 mm | 2.68 m/s, 233° | - | - |
| 1778065351 | 5° C | 94% | - | 0 mm | 3.13 m/s, 239° | - | - |
| 1778064455 | 5° C | 94% | - | 0 mm | 3.58 m/s, 224° | - | - |
* Rain latest hour (hover to see other rain measurements)
** Current wind speed in m/s (hover to see current wind gust speed)